Heat Index [SAI AWOS/ASOS Display]_________FAA Disclaimer: "Not for use in aviation at this time______________" Untitled Document
Steven A. Bean Municipal Airport 8B0 Rangeley, Maine
220
17:08
17/01/16
06
N/A
N/A
30.11
N/A
1825
25(F), -4(C)
08(F), -13(C)
18 F
49%
CLR
10
N/A
N/A
N/A
17:08 zulu Wind 220 at 06 Knots, Altimeter 30.11
METAR K8B0 161708Z AUTO 22006KT 10SM CLR M04/M13 A3012 A02
METAR:
FAA Disclaimer--Advisory Use ONLY, not for flight info-- AWOS 207-864-5250 / 118.00mhz..... Pilots with cellphones (smartphones) can now view awos at http://www.saiawos2.com/8B0/ge.php .... ---
INFO:
Wind Direction:
Wind Speed:
Wind Gust:
Wind Variable:
Altimeter:
Dens Alt:
Elev:
Temp:
Dwpt:
Wind Chill
Rel Humidity:
Ceiling:
Visibility:
Prsnt Wea:
PCPN:
Remarks:
NOTICE--Current weather data is more than 15 minutes old. The SAI AWOS/ASOS Display is inoperative at this time.
How to read the WebPage